Time;durP1;ratioP1;P1;durP2;ratioP2;P2;SDS_P1;SDS_P2;PMS_P1;PMS_P2;Temp;Humidity;BMP_temperature;BMP_pressure;BME280_temperature;BME280_humidity;BME280_pressure;Samples;Min_cycle;Max_cycle;Signal;HPM_P1;HPM_P2
2021/12/03 00:01:07;;;;;;;;;;;;;;;2.02;71.01;99047.31;5049682;28;20728;-86
2021/12/03 00:03:32;;;;;;;;;;;;;;;2.05;70.68;99050.78;5046346;28;20325;-86
2021/12/03 00:05:58;;;;;;;;;;;;;;;2.25;70.85;99058.78;5049229;28;19916;-86
2021/12/03 00:08:25;;;;;;;;;;;;;;;2.21;70.35;99051.81;5049629;28;19917;-86
2021/12/03 00:10:55;;;;;;;;;;;;;;;2.22;70.35;99061.34;5049784;28;19923;-86
2021/12/03 00:13:20;;;;;;;;;;;;;;;2.28;70.65;99069.22;5043872;28;19978;-86
2021/12/03 00:15:46;;;;;;;;;;;;;;;2.13;71.25;99072.56;5040713;28;19920;-86
2021/12/03 00:18:12;;;;;;;;;;;;;;;1.95;72.20;99055.06;5039719;28;19923;-86
2021/12/03 00:20:39;;;;;;;;;;;;;;;1.86;73.21;99056.72;5048093;28;20321;-86
2021/12/03 00:23:04;;;;;;;;;;;;;;;2.12;72.83;99067.34;5043590;28;19917;-86
2021/12/03 00:25:30;;;;;;;;;;;;;;;2.23;71.92;99070.91;5043458;28;19923;-86
2021/12/03 00:27:55;;;;;;;;;;;;;;;2.29;71.17;99063.16;5048558;28;19967;-86
2021/12/03 00:30:20;;;;;;;;;;;;;;;1.50;71.88;99056.34;5047651;28;19916;-85
2021/12/03 00:32:47;;;;;;;;;;;;;;;1.55;71.94;99072.84;5046453;28;19920;-86
2021/12/03 00:35:12;;;;;;;;;;;;;;;1.65;71.25;99075.53;5041767;28;19920;-86
2021/12/03 00:37:39;;;;;;;;;;;;;;;1.79;70.32;99068.75;5046893;28;20011;-86
2021/12/03 00:40:05;;;;;;;;;;;;;;;1.77;70.45;99067.88;5047532;28;19942;-86
2021/12/03 00:42:32;;;;;;;;;;;;;;;1.77;70.52;99031.47;5047838;28;19916;-86
2021/12/03 00:44:57;;;;;;;;;;;;;;;1.32;71.40;99046.59;5039968;28;19972;-85
2021/12/03 00:47:23;;;;;;;;;;;;;;;1.54;70.93;99078.03;5047781;28;19952;-86
2021/12/03 00:49:49;;;;;;;;;;;;;;;1.37;70.96;99075.22;5048551;28;19913;-86
2021/12/03 00:52:15;;;;;;;;;;;;;;;1.18;72.50;99072.41;5046755;28;19985;-85
2021/12/03 00:54:40;;;;;;;;;;;;;;;1.16;72.76;99055.03;5048335;28;20065;-86
2021/12/03 00:57:05;;;;;;;;;;;;;;;1.45;72.05;99065.78;5042554;28;19921;-86
2021/12/03 00:59:31;;;;;;;;;;;;;;;1.63;71.29;99083.31;5028503;28;20295;-86
2021/12/03 01:01:56;;;;;;;;;;;;;;;1.36;72.42;99091.66;5028576;28;20315;-86
2021/12/03 01:04:21;;;;;;;;;;;;;;;1.30;73.31;99076.00;5041320;28;19995;-87
2021/12/03 01:06:47;;;;;;;;;;;;;;;1.09;74.84;99084.41;5027080;28;19924;-86
2021/12/03 01:09:13;;;;;;;;;;;;;;;1.21;75.18;99094.97;5028261;28;20055;-86
2021/12/03 01:11:38;;;;;;;;;;;;;;;1.49;74.47;99072.78;5028120;28;20007;-85
2021/12/03 01:14:04;;;;;;;;;;;;;;;1.54;73.64;99065.03;5041555;28;19920;-85
2021/12/03 01:16:30;;;;;;;;;;;;;;;1.59;73.68;99074.63;5028249;28;19925;-85
2021/12/03 01:18:56;;;;;;;;;;;;;;;1.59;73.65;99061.63;5027523;28;19974;-85
2021/12/03 01:21:22;;;;;;;;;;;;;;;1.54;73.51;99057.22;5028035;28;20055;-87
2021/12/03 01:23:47;;;;;;;;;;;;;;;1.53;73.87;99061.56;5033295;28;20403;-85
2021/12/03 01:26:13;;;;;;;;;;;;;;;1.64;73.75;99048.69;5028116;28;19917;-85
2021/12/03 01:28:39;;;;;;;;;;;;;;;1.54;74.00;99032.09;5026647;28;20329;-85
2021/12/03 01:31:04;;;;;;;;;;;;;;;1.53;73.83;99042.47;5028158;28;19917;-86
2021/12/03 01:33:29;;;;;;;;;;;;;;;1.69;73.77;99044.41;5027137;28;20357;-85
2021/12/03 01:35:55;;;;;;;;;;;;;;;1.61;73.44;99031.31;5027831;28;20701;-86
2021/12/03 01:38:20;;;;;;;;;;;;;;;1.18;75.53;99016.97;5045847;28;20011;-85
2021/12/03 01:40:46;;;;;;;;;;;;;;;1.29;75.64;99048.28;5046149;28;19913;-85
2021/12/03 01:43:15;;;;;;;;;;;;;;;1.47;75.49;99019.91;5038788;28;19924;-85
2021/12/03 01:45:41;;;;;;;;;;;;;;;1.42;75.98;99013.75;5041411;28;20415;-85
2021/12/03 01:48:07;;;;;;;;;;;;;;;1.38;76.22;99033.66;5046721;28;19917;-85
2021/12/03 01:50:43;;;;;;;;;;;;;;;1.19;77.02;99037.78;5046665;28;19944;-85
2021/12/03 01:53:08;;;;;;;;;;;;;;;1.47;76.54;99024.22;5037247;28;19947;-86
2021/12/03 01:55:34;;;;;;;;;;;;;;;1.74;75.81;99019.28;5029213;28;19921;-85
2021/12/03 01:57:59;;;;;;;;;;;;;;;1.89;75.08;99018.56;5026475;28;19978;-86
2021/12/03 02:00:30;;;;;;;;;;;;;;;1.38;76.61;99022.41;5027753;28;19913;-86
2021/12/03 02:02:56;;;;;;;;;;;;;;;1.73;75.88;98995.88;5042734;28;19943;-85
2021/12/03 02:05:21;;;;;;;;;;;;;;;1.82;75.58;98985.56;5037662;28;19920;-85
2021/12/03 02:07:47;;;;;;;;;;;;;;;1.95;75.28;98995.22;5044940;28;20409;-85
2021/12/03 02:10:13;;;;;;;;;;;;;;;2.00;74.39;99010.00;5047312;28;19951;-85
2021/12/03 02:12:38;;;;;;;;;;;;;;;2.03;74.43;98994.44;5031266;28;19932;-85
2021/12/03 02:15:04;;;;;;;;;;;;;;;1.95;74.21;98987.41;5026510;28;19921;-86
2021/12/03 02:17:29;;;;;;;;;;;;;;;2.00;74.76;99007.41;5032240;28;20448;-86
2021/12/03 02:19:55;;;;;;;;;;;;;;;2.18;74.51;99002.34;5047672;28;19908;-85
2021/12/03 02:22:20;;;;;;;;;;;;;;;2.08;74.07;98990.13;5046283;28;20301;-85
2021/12/03 02:24:46;;;;;;;;;;;;;;;1.81;74.19;99006.34;5026417;28;20392;-85
2021/12/03 02:27:11;;;;;;;;;;;;;;;1.97;74.08;99009.09;5027345;28;19909;-85
2021/12/03 02:29:36;;;;;;;;;;;;;;;2.20;73.89;99000.63;5027370;28;20432;-85
2021/12/03 02:32:02;;;;;;;;;;;;;;;2.09;73.99;99016.16;5031153;28;20438;-85
2021/12/03 02:34:27;;;;;;;;;;;;;;;1.96;74.30;99016.91;5026714;28;19917;-86
2021/12/03 02:36:53;;;;;;;;;;;;;;;1.80;74.89;99013.28;5026758;28;20403;-86
2021/12/03 02:39:18;;;;;;;;;;;;;;;2.07;74.86;99003.97;5026977;28;19917;-86
2021/12/03 02:41:43;;;;;;;;;;;;;;;2.05;74.45;99009.16;5027938;28;19920;-86
2021/12/03 02:44:09;;;;;;;;;;;;;;;2.27;74.02;99007.63;5026482;28;19917;-86
2021/12/03 02:46:34;;;;;;;;;;;;;;;2.07;74.14;98990.97;5046343;28;20288;-86
2021/12/03 02:48:59;;;;;;;;;;;;;;;2.25;74.03;98979.84;5045818;28;19923;-86
2021/12/03 02:51:25;;;;;;;;;;;;;;;2.33;73.55;98979.03;5041786;28;19924;-85
2021/12/03 02:53:51;;;;;;;;;;;;;;;2.25;74.09;98982.44;5026586;28;19917;-85
2021/12/03 02:56:16;;;;;;;;;;;;;;;1.96;74.73;98996.97;5025503;28;19924;-86
2021/12/03 02:58:42;;;;;;;;;;;;;;;2.00;75.46;98986.59;5025710;28;19921;-85
2021/12/03 03:01:08;;;;;;;;;;;;;;;2.09;75.36;98984.06;5026703;28;19925;-85
2021/12/03 03:03:34;;;;;;;;;;;;;;;2.02;75.70;98971.84;5030006;28;19916;-85
2021/12/03 03:06:00;;;;;;;;;;;;;;;1.89;76.12;98984.75;5029315;28;19983;-86
2021/12/03 03:08:26;;;;;;;;;;;;;;;2.24;75.16;98988.50;5030664;28;19917;-85
2021/12/03 03:10:52;;;;;;;;;;;;;;;2.33;74.30;98999.88;5032658;28;19925;-85
2021/12/03 03:13:18;;;;;;;;;;;;;;;2.01;75.96;99011.72;5050341;28;19963;-85
2021/12/03 03:15:43;;;;;;;;;;;;;;;2.16;75.36;99024.88;5037836;28;20046;-85
2021/12/03 03:18:20;;;;;;;;;;;;;;;2.26;74.74;99031.91;5042581;28;19963;-86
2021/12/03 03:20:46;;;;;;;;;;;;;;;2.07;75.25;99015.28;5042939;28;19921;-86
2021/12/03 03:23:13;;;;;;;;;;;;;;;1.95;75.28;99000.44;5029484;28;20022;-85
2021/12/03 03:25:40;;;;;;;;;;;;;;;1.73;76.15;99008.88;5030157;28;19920;-85
2021/12/03 03:28:06;;;;;;;;;;;;;;;1.91;75.94;99013.38;5028849;28;19917;-86
2021/12/03 03:30:32;;;;;;;;;;;;;;;1.85;75.69;99008.13;5030576;28;19924;-84
2021/12/03 03:32:57;;;;;;;;;;;;;;;1.71;75.64;99005.41;5029671;28;20438;-86
2021/12/03 03:35:23;;;;;;;;;;;;;;;1.66;77.06;99010.56;5029830;28;20013;-86
2021/12/03 03:37:48;;;;;;;;;;;;;;;1.94;75.61;98990.88;5028801;28;19921;-87
2021/12/03 03:40:13;;;;;;;;;;;;;;;1.87;75.94;98994.28;5030054;28;19917;-87
2021/12/03 03:42:39;;;;;;;;;;;;;;;1.71;75.78;99001.06;5029478;28;20037;-86
2021/12/03 03:45:07;;;;;;;;;;;;;;;1.95;75.70;99018.63;5034633;28;19979;-85
2021/12/03 03:47:33;;;;;;;;;;;;;;;1.84;75.89;99002.06;5041113;28;19932;-86
2021/12/03 03:49:58;;;;;;;;;;;;;;;2.03;74.96;98997.03;5048123;28;19913;-85
2021/12/03 03:52:23;;;;;;;;;;;;;;;2.08;74.68;99006.59;5049606;28;19919;-85
2021/12/03 03:54:49;;;;;;;;;;;;;;;2.16;74.41;99011.84;5031701;28;20580;-85
2021/12/03 03:57:14;;;;;;;;;;;;;;;2.13;74.73;98993.63;5029473;28;19916;-85
2021/12/03 03:59:39;;;;;;;;;;;;;;;2.05;74.26;99003.09;5029432;28;19916;-85
2021/12/03 04:02:05;;;;;;;;;;;;;;;2.06;73.96;99007.47;5042094;28;19928;-84
2021/12/03 04:04:30;;;;;;;;;;;;;;;2.16;74.19;99006.66;5047290;28;19920;-85
2021/12/03 04:06:56;;;;;;;;;;;;;;;2.17;74.05;98999.75;5049209;28;20394;-85
2021/12/03 04:09:24;;;;;;;;;;;;;;;2.32;73.84;98999.84;5049210;28;19916;-85
2021/12/03 04:11:49;;;;;;;;;;;;;;;2.39;73.41;99005.97;5042137;28;19916;-84
2021/12/03 04:14:15;;;;;;;;;;;;;;;2.33;73.79;99002.47;5048496;28;20406;-83
2021/12/03 04:16:40;;;;;;;;;;;;;;;2.41;73.70;98997.31;5049415;28;20375;-85
2021/12/03 04:19:06;;;;;;;;;;;;;;;1.93;nan;99007.34;5049529;28;19912;-81
2021/12/03 04:21:31;;;;;;;;;;;;;;;2.25;74.45;98998.91;5047312;28;20359;-84
2021/12/03 04:23:56;;;;;;;;;;;;;;;2.34;73.51;98995.53;5048696;28;20062;-83
2021/12/03 04:26:22;;;;;;;;;;;;;;;2.31;73.79;99013.72;5047496;28;19912;-84
2021/12/03 04:28:47;;;;;;;;;;;;;;;2.17;74.49;99005.81;5049022;28;19917;-84
2021/12/03 04:31:13;;;;;;;;;;;;;;;2.29;74.12;99005.03;5039238;28;20323;-84
2021/12/03 04:33:38;;;;;;;;;;;;;;;2.33;74.37;98983.34;5037983;28;19986;-84
2021/12/03 04:36:04;;;;;;;;;;;;;;;2.38;73.67;98986.88;5048914;28;19917;-84
2021/12/03 04:38:30;;;;;;;;;;;;;;;2.26;73.53;98997.22;5049081;28;20024;-84
2021/12/03 04:40:56;;;;;;;;;;;;;;;2.09;74.55;98987.53;5041227;28;20463;-83
2021/12/03 04:43:21;;;;;;;;;;;;;;;2.23;74.35;98992.84;5028611;28;20406;-85
2021/12/03 04:45:46;;;;;;;;;;;;;;;2.30;74.65;98999.84;5028025;28;20016;-86
2021/12/03 04:48:12;;;;;;;;;;;;;;;2.19;74.67;98979.78;5028645;28;20094;-85
2021/12/03 04:50:39;;;;;;;;;;;;;;;2.35;74.29;99001.59;5032088;28;20442;-85
2021/12/03 04:53:05;;;;;;;;;;;;;;;2.01;74.77;99009.13;5039167;28;19928;-85
2021/12/03 04:55:30;;;;;;;;;;;;;;;2.29;74.78;98998.09;5028542;28;19920;-84
2021/12/03 04:57:55;;;;;;;;;;;;;;;2.41;74.58;99002.53;5027534;28;20311;-84
2021/12/03 05:00:23;;;;;;;;;;;;;;;2.25;74.92;99024.94;5028090;28;20007;-85
2021/12/03 05:02:50;;;;;;;;;;;;;;;1.85;76.46;99015.94;5030915;28;20418;-84
2021/12/03 05:05:15;;;;;;;;;;;;;;;2.00;76.68;99010.00;5027578;28;19939;-85
2021/12/03 05:10:07;;;;;;;;;;;;;;;2.09;75.92;99031.75;5030005;28;19924;-85
2021/12/03 05:12:33;;;;;;;;;;;;;;;2.18;76.00;99032.69;5028594;28;20454;-85
2021/12/03 05:14:58;;;;;;;;;;;;;;;2.23;75.27;98997.19;5027659;28;20024;-84
2021/12/03 05:17:23;;;;;;;;;;;;;;;2.07;76.37;99017.88;5028613;28;19979;-84
2021/12/03 05:19:49;;;;;;;;;;;;;;;1.70;78.04;99034.84;5026150;28;19920;-85
2021/12/03 05:22:14;;;;;;;;;;;;;;;1.52;79.03;99040.75;5028536;28;19936;-85
2021/12/03 05:24:45;;;;;;;;;;;;;;;1.38;79.17;99018.06;5027169;28;19928;-85
2021/12/03 05:27:10;;;;;;;;;;;;;;;1.21;79.96;99011.81;5027141;28;20424;-85
2021/12/03 05:29:35;;;;;;;;;;;;;;;1.57;78.60;99024.31;5034955;28;20046;-85
2021/12/03 05:32:01;;;;;;;;;;;;;;;1.60;78.43;99049.50;5043167;28;19928;-85
2021/12/03 05:34:26;;;;;;;;;;;;;;;1.77;77.81;99052.28;5028122;28;20390;-85
2021/12/03 05:36:52;;;;;;;;;;;;;;;1.59;78.15;99066.84;5026914;28;19960;-85
2021/12/03 05:39:17;;;;;;;;;;;;;;;1.37;77.87;99028.44;5043086;28;19956;-85
2021/12/03 05:41:43;;;;;;;;;;;;;;;1.17;78.70;99049.84;5047390;28;20015;-85
2021/12/03 05:44:08;;;;;;;;;;;;;;;1.44;78.78;99066.66;5046895;28;19995;-85
2021/12/03 05:46:33;;;;;;;;;;;;;;;1.63;77.58;99067.72;5038032;28;19921;-83
2021/12/03 05:48:59;;;;;;;;;;;;;;;2.01;76.27;99059.44;5031788;28;20005;-87
2021/12/03 05:51:26;;;;;;;;;;;;;;;1.93;75.42;99046.38;5047321;28;19923;-85
2021/12/03 05:53:52;;;;;;;;;;;;;;;1.95;75.79;99036.84;5031561;28;20016;-84
2021/12/03 05:56:17;;;;;;;;;;;;;;;1.91;75.43;99037.66;5028146;28;20343;-84
2021/12/03 05:58:44;;;;;;;;;;;;;;;1.83;76.24;99056.66;5026878;28;20358;-85
2021/12/03 06:01:09;;;;;;;;;;;;;;;2.05;76.22;99039.53;5027745;28;20032;-83
2021/12/03 06:03:34;;;;;;;;;;;;;;;2.19;75.16;99058.72;5045254;28;20059;-84
2021/12/03 06:06:00;;;;;;;;;;;;;;;2.46;74.54;99072.84;5030270;28;19920;-86
2021/12/03 06:08:25;;;;;;;;;;;;;;;2.38;74.98;99082.31;5026978;28;19917;-84
2021/12/03 06:10:50;;;;;;;;;;;;;;;2.57;73.57;99062.50;5027497;28;19995;-85
2021/12/03 06:13:16;;;;;;;;;;;;;;;2.21;74.72;99067.44;5027457;28;20394;-85
2021/12/03 06:15:41;;;;;;;;;;;;;;;2.24;75.25;99088.28;5026949;28;19921;-85
2021/12/03 06:18:06;;;;;;;;;;;;;;;2.45;74.61;99091.91;5027618;28;19927;-85
2021/12/03 06:20:32;;;;;;;;;;;;;;;2.47;74.22;99108.41;5026480;28;19967;-85
2021/12/03 06:22:57;;;;;;;;;;;;;;;2.29;74.70;99086.59;5027059;28;19916;-85
2021/12/03 06:25:23;;;;;;;;;;;;;;;2.60;74.03;99097.25;5026255;28;19921;-85
2021/12/03 06:27:48;;;;;;;;;;;;;;;2.75;73.68;99100.81;5026992;28;19916;-84
2021/12/03 06:30:17;;;;;;;;;;;;;;;2.74;73.24;99079.13;5026362;28;19917;-85
2021/12/03 06:32:42;;;;;;;;;;;;;;;2.83;73.54;99099.16;5026681;28;20387;-85
2021/12/03 06:35:11;;;;;;;;;;;;;;;2.79;74.11;99097.38;5027220;28;19920;-84
2021/12/03 06:37:37;;;;;;;;;;;;;;;2.84;74.03;99072.22;5028183;28;19913;-86
2021/12/03 06:40:07;;;;;;;;;;;;;;;2.94;73.74;99110.50;5031402;28;20276;-84
2021/12/03 06:42:33;;;;;;;;;;;;;;;3.21;72.91;99088.94;5030807;28;19909;-85
2021/12/03 06:44:58;;;;;;;;;;;;;;;3.23;72.80;99097.63;5030502;28;19921;-85
2021/12/03 06:47:23;;;;;;;;;;;;;;;3.18;72.77;99116.72;5031403;28;19920;-85
2021/12/03 06:49:49;;;;;;;;;;;;;;;3.21;73.57;99107.19;5030431;28;19917;-85
2021/12/03 06:52:15;;;;;;;;;;;;;;;3.04;73.14;99098.41;5030274;28;20300;-85
2021/12/03 06:54:41;;;;;;;;;;;;;;;3.19;72.71;99114.13;5031326;28;19909;-85
2021/12/03 06:57:07;;;;;;;;;;;;;;;3.13;73.60;99090.63;5030384;28;19917;-85
2021/12/03 06:59:33;;;;;;;;;;;;;;;3.29;73.23;99120.28;5031041;28;19917;-86
2021/12/03 07:01:58;;;;;;;;;;;;;;;3.40;72.73;99105.53;5030084;28;19917;-85
2021/12/03 07:04:24;;;;;;;;;;;;;;;3.53;72.49;99095.16;5030781;28;19916;-85
2021/12/03 07:06:49;;;;;;;;;;;;;;;3.00;74.64;99127.91;5029831;28;19921;-85
2021/12/03 07:09:15;;;;;;;;;;;;;;;3.24;73.72;99103.72;5031065;28;20008;-85
2021/12/03 07:11:41;;;;;;;;;;;;;;;3.15;73.60;99114.97;5029083;28;19917;-84
2021/12/03 07:14:06;;;;;;;;;;;;;;;3.20;74.45;99138.47;5030857;28;19971;-85
2021/12/03 07:16:32;;;;;;;;;;;;;;;3.27;73.96;99118.50;5029788;28;19979;-85
2021/12/03 07:18:58;;;;;;;;;;;;;;;3.49;74.07;99130.81;5029105;28;19967;-85
2021/12/03 07:21:23;;;;;;;;;;;;;;;3.43;73.79;99146.41;5030417;28;19927;-85
2021/12/03 07:23:50;;;;;;;;;;;;;;;3.64;72.73;99127.38;5029897;28;19921;-85
2021/12/03 07:26:16;;;;;;;;;;;;;;;3.76;72.94;99131.78;5030315;28;19924;-85
2021/12/03 07:28:42;;;;;;;;;;;;;;;3.99;72.72;99149.25;5029977;28;19917;-84
2021/12/03 07:31:07;;;;;;;;;;;;;;;3.95;72.62;99130.06;5030623;28;20398;-85
2021/12/03 07:33:33;;;;;;;;;;;;;;;4.17;71.74;99135.34;5029386;28;19916;-85
2021/12/03 07:35:58;;;;;;;;;;;;;;;4.08;72.31;99146.66;5030038;28;19960;-85
2021/12/03 07:38:24;;;;;;;;;;;;;;;4.48;72.13;99137.16;5030128;28;20089;-85
2021/12/03 07:40:49;;;;;;;;;;;;;;;4.53;70.79;99141.50;5029775;28;20417;-85
2021/12/03 07:43:18;;;;;;;;;;;;;;;4.71;71.83;99146.75;5030112;28;20435;-85
2021/12/03 07:45:47;;;;;;;;;;;;;;;4.94;70.35;99136.28;5029507;28;19917;-85
2021/12/03 07:48:12;;;;;;;;;;;;;;;5.19;71.22;99144.06;5029368;28;19965;-85
2021/12/03 07:50:40;;;;;;;;;;;;;;;5.45;68.80;99116.97;5029137;28;19972;-84
2021/12/03 07:53:06;;;;;;;;;;;;;;;5.29;69.74;99129.22;5029087;28;20417;-86
2021/12/03 07:55:32;;;;;;;;;;;;;;;5.42;69.14;99124.81;5029836;28;19917;-86
2021/12/03 07:57:57;;;;;;;;;;;;;;;5.64;69.59;99125.59;5029515;28;20338;-86
2021/12/03 08:00:22;;;;;;;;;;;;;;;5.69;67.43;99132.56;5029108;28;19983;-86
2021/12/03 08:02:48;;;;;;;;;;;;;;;5.18;69.14;99140.56;5030108;28;19935;-86
2021/12/03 08:05:14;;;;;;;;;;;;;;;5.26;69.50;99156.25;5029629;28;20035;-86
2021/12/03 08:07:40;;;;;;;;;;;;;;;5.71;68.71;99141.28;5029567;28;19956;-86
2021/12/03 08:10:05;;;;;;;;;;;;;;;6.13;66.80;99137.63;5029793;28;19913;-86
2021/12/03 08:12:31;;;;;;;;;;;;;;;6.34;67.38;99142.72;5029786;28;19964;-86
2021/12/03 08:14:56;;;;;;;;;;;;;;;6.12;66.18;99138.50;5034055;28;20474;-86
2021/12/03 08:17:21;;;;;;;;;;;;;;;6.25;66.74;99146.25;5049435;28;19917;-86
2021/12/03 08:19:47;;;;;;;;;;;;;;;6.05;67.28;99132.44;5048680;28;19920;-86
2021/12/03 08:22:12;;;;;;;;;;;;;;;6.31;67.26;99141.88;5049316;28;19920;-85
2021/12/03 08:24:37;;;;;;;;;;;;;;;6.58;66.66;99133.81;5049284;28;19952;-85
2021/12/03 08:27:03;;;;;;;;;;;;;;;6.79;65.56;99132.75;5036485;28;19967;-86
2021/12/03 08:29:28;;;;;;;;;;;;;;;6.83;65.37;99133.63;5029137;28;19917;-86
2021/12/03 08:31:54;;;;;;;;;;;;;;;7.23;64.56;99111.38;5028361;28;20719;-87
2021/12/03 08:34:19;;;;;;;;;;;;;;;7.33;64.49;99106.00;5027058;28;20389;-86
2021/12/03 08:36:44;;;;;;;;;;;;;;;7.30;64.24;99129.66;5029254;28;19974;-86
2021/12/03 08:39:10;;;;;;;;;;;;;;;7.75;64.28;99131.75;5029178;28;19978;-86
2021/12/03 08:41:36;;;;;;;;;;;;;;;7.85;64.38;99111.53;5029010;28;20015;-85
2021/12/03 08:44:02;;;;;;;;;;;;;;;7.66;64.99;99130.13;5028180;28;19924;-86
2021/12/03 08:46:36;;;;;;;;;;;;;;;8.09;65.54;99122.56;5029213;28;19924;-86
2021/12/03 08:49:09;;;;;;;;;;;;;;;7.92;63.29;99107.91;5028233;28;19917;-85
2021/12/03 08:56:50;;;;;;;;;;;;;;;8.37;61.63;99118.66;5028443;28;19915;-86
2021/12/03 08:59:16;;;;;;;;;;;;;;;8.31;61.35;99083.69;5028612;28;19916;-85
2021/12/03 09:01:42;;;;;;;;;;;;;;;8.57;61.33;99092.09;5028572;28;19917;-84
2021/12/03 09:04:08;;;;;;;;;;;;;;;8.87;60.53;99063.53;5028848;28;19920;-86
2021/12/03 09:06:34;;;;;;;;;;;;;;;8.81;60.71;99082.03;5028347;28;19916;-85
2021/12/03 09:09:00;;;;;;;;;;;;;;;8.73;61.56;99057.66;5028653;28;19917;-86
2021/12/03 09:11:27;;;;;;;;;;;;;;;9.05;62.67;99086.00;5028472;28;19947;-86
2021/12/03 09:13:53;;;;;;;;;;;;;;;9.41;61.01;99087.97;5028198;28;19917;-86
2021/12/03 09:16:20;;;;;;;;;;;;;;;9.58;60.23;99071.81;5027606;28;20346;-85
2021/12/03 09:18:49;;;;;;;;;;;;;;;9.43;59.32;99055.41;5027708;28;19929;-85
2021/12/03 09:21:34;;;;;;;;;;;;;;;9.50;59.81;99058.81;5027612;28;19916;-84
2021/12/03 09:26:29;;;;;;;;;;;;;;;9.52;60.53;99064.91;5028026;28;19964;-85
2021/12/03 09:29:02;;;;;;;;;;;;;;;9.49;59.65;99073.72;5027911;28;19916;-85
2021/12/03 09:31:27;;;;;;;;;;;;;;;9.58;60.06;99072.69;5027177;28;19921;-85
2021/12/03 09:33:53;;;;;;;;;;;;;;;8.93;61.05;99057.28;5027901;28;19924;-85
2021/12/03 09:36:19;;;;;;;;;;;;;;;9.25;61.13;99055.78;5028042;28;20284;-85
2021/12/03 09:38:44;;;;;;;;;;;;;;;9.43;60.54;99065.94;5027699;28;19967;-85
2021/12/03 09:41:11;;;;;;;;;;;;;;;9.38;59.93;99043.28;5027616;28;19924;-85
2021/12/03 09:43:40;;;;;;;;;;;;;;;9.49;60.31;99062.34;5027183;28;20316;-85
2021/12/03 09:46:13;;;;;;;;;;;;;;;9.96;60.06;99049.03;5027999;28;19967;-85
2021/12/03 09:51:28;;;;;;;;;;;;;;;9.83;59.78;99041.41;5015885;28;20379;-85
2021/12/03 09:56:38;;;;;;;;;;;;;;;10.38;57.62;99031.38;5027078;28;19928;-84
2021/12/03 10:33:46;;;;;;;;;;;;;;;11.02;56.69;99006.84;5026456;28;20662;-83
2021/12/03 10:38:42;;;;;;;;;;;;;;;11.20;58.26;99008.09;5025558;28;19917;-85
2021/12/03 11:07:56;;;;;;;;;;;;;;;12.31;54.37;98970.38;5026915;28;20012;-82
2021/12/03 11:35:08;;;;;;;;;;;;;;;12.39;54.00;98958.63;5029598;28;20353;-84
2021/12/03 11:55:42;;;;;;;;;;;;;;;12.83;53.81;98948.28;5048250;28;19917;-84
2021/12/03 14:51:42;;;;;;;;;;;;;;;10.31;66.39;98905.00;5027853;28;19917;-85
2021/12/03 14:53:53;;;;;;;;;;;;;;;10.83;64.48;98905.34;5025973;28;19921;-86
2021/12/03 14:56:23;;;;;;;;;;;;;;;10.98;63.84;98909.31;5027530;28;19924;-85
2021/12/03 14:59:05;;;;;;;;;;;;;;;10.52;65.03;98917.63;5028740;28;19924;-85
2021/12/03 15:01:46;;;;;;;;;;;;;;;10.49;65.43;98930.91;5030628;28;19960;-87
2021/12/03 15:07:44;;;;;;;;;;;;;;;10.59;64.78;98925.38;5032750;28;19924;-88
2021/12/03 15:09:50;;;;;;;;;;;;;;;10.42;65.26;98931.09;5030087;28;19913;-87
2021/12/03 15:23:25;;;;;;;;;;;;;;;9.94;66.10;98927.88;5030837;28;19913;-86
2021/12/03 15:25:59;;;;;;;;;;;;;;;9.89;66.86;98926.28;5030319;28;19928;-86
2021/12/03 15:36:55;;;;;;;;;;;;;;;9.81;66.22;98937.00;5042052;28;19955;-86
2021/12/03 16:08:42;;;;;;;;;;;;;;;9.54;68.93;98984.09;5040708;28;19924;-86
2021/12/03 16:11:14;;;;;;;;;;;;;;;9.45;68.71;98979.03;5028646;28;20323;-86
2021/12/03 16:13:51;;;;;;;;;;;;;;;9.49;69.46;98978.09;5038468;28;19924;-89
2021/12/03 16:51:32;;;;;;;;;;;;;;;9.04;71.16;98979.03;5048553;28;19913;-87
2021/12/03 16:53:32;;;;;;;;;;;;;;;9.28;70.12;98975.03;5039519;28;20380;-88
2021/12/03 16:56:20;;;;;;;;;;;;;;;9.22;70.35;98980.41;5048869;28;20350;-87
2021/12/03 16:58:46;;;;;;;;;;;;;;;9.36;69.82;98993.28;5048540;28;19956;-85
2021/12/03 17:01:24;;;;;;;;;;;;;;;9.18;70.47;98993.69;5046127;28;20058;-86
2021/12/03 17:04:23;;;;;;;;;;;;;;;9.14;70.42;98975.31;5035992;28;19919;-85
2021/12/03 17:11:44;;;;;;;;;;;;;;;9.22;70.51;98971.66;5048938;28;20027;-86
2021/12/03 17:57:13;;;;;;;;;;;;;;;8.69;71.84;99004.22;5027252;28;19917;-83
2021/12/03 17:59:43;;;;;;;;;;;;;;;8.87;71.12;99010.06;5027434;28;20352;-84
2021/12/03 18:10:27;;;;;;;;;;;;;;;8.74;71.31;99004.16;5026959;28;20014;-84
2021/12/03 18:48:33;;;;;;;;;;;;;;;9.05;71.14;99019.34;5023039;28;20545;-85
2021/12/03 18:56:21;;;;;;;;;;;;;;;8.74;71.98;99006.78;5030242;28;19925;-88
2021/12/03 18:58:51;;;;;;;;;;;;;;;8.86;72.10;99013.59;5031190;28;19924;-86
2021/12/03 19:01:17;;;;;;;;;;;;;;;9.06;71.09;99027.22;5030305;28;19925;-85
2021/12/03 19:06:18;;;;;;;;;;;;;;;8.76;71.89;99019.00;5037380;28;19927;-85
2021/12/03 19:08:52;;;;;;;;;;;;;;;8.82;71.56;99022.41;5050862;28;20631;-84
2021/12/03 19:11:34;;;;;;;;;;;;;;;8.91;71.69;99016.97;5050839;28;20357;-86
2021/12/03 19:13:59;;;;;;;;;;;;;;;8.99;71.01;99025.63;5037079;28;20464;-85
2021/12/03 19:16:26;;;;;;;;;;;;;;;8.87;71.92;99017.97;5030552;28;19917;-87
2021/12/03 19:18:53;;;;;;;;;;;;;;;9.07;70.71;99013.16;5030697;28;19994;-84
2021/12/03 19:21:24;;;;;;;;;;;;;;;8.98;71.18;99010.72;5030511;28;19916;-85
2021/12/03 19:23:55;;;;;;;;;;;;;;;8.82;71.59;99014.53;5029890;28;19917;-86
2021/12/03 19:26:20;;;;;;;;;;;;;;;8.89;71.19;99018.78;5030404;28;19917;-89
2021/12/03 19:28:46;;;;;;;;;;;;;;;9.05;70.93;99020.22;5030770;28;20362;-85
2021/12/03 19:31:11;;;;;;;;;;;;;;;8.98;70.60;99025.66;5030250;28;20379;-85
2021/12/03 19:33:37;;;;;;;;;;;;;;;9.10;70.02;99026.25;5030488;28;19928;-86
2021/12/03 19:36:03;;;;;;;;;;;;;;;8.67;72.10;99044.63;5030530;28;20342;-86
2021/12/03 19:38:30;;;;;;;;;;;;;;;8.60;72.97;99042.09;5029871;28;19925;-86
2021/12/03 19:40:59;;;;;;;;;;;;;;;8.94;71.14;99040.59;5029963;28;19916;-89
2021/12/03 19:43:45;;;;;;;;;;;;;;;9.12;70.31;99032.34;5030185;28;19968;-85
2021/12/03 19:46:13;;;;;;;;;;;;;;;9.02;71.70;99046.59;5027264;28;20011;-86
2021/12/03 19:49:03;;;;;;;;;;;;;;;9.24;71.67;99044.41;5030504;28;19917;-84
2021/12/03 19:51:30;;;;;;;;;;;;;;;9.36;70.42;99045.94;5028929;28;19976;-85
2021/12/03 19:53:58;;;;;;;;;;;;;;;9.41;70.44;99059.00;5030120;28;20011;-86
2021/12/03 19:56:25;;;;;;;;;;;;;;;9.24;71.03;99054.94;5029190;28;19936;-87
2021/12/03 19:58:52;;;;;;;;;;;;;;;9.28;70.80;99051.34;5032478;28;20327;-86
2021/12/03 20:01:18;;;;;;;;;;;;;;;9.24;70.60;99057.56;5027351;28;20355;-85
2021/12/03 20:03:43;;;;;;;;;;;;;;;9.40;70.63;99067.78;5032795;28;19971;-88
2021/12/03 20:06:09;;;;;;;;;;;;;;;9.28;69.44;99059.25;5029754;28;19921;-85
2021/12/03 20:08:35;;;;;;;;;;;;;;;9.41;69.61;99066.91;5038325;28;19917;-85
2021/12/03 20:11:05;;;;;;;;;;;;;;;9.35;69.32;99059.13;5029574;28;19978;-91
2021/12/03 20:13:30;;;;;;;;;;;;;;;9.26;69.77;99050.50;5045085;28;19917;-85
2021/12/03 20:21:06;;;;;;;;;;;;;;;8.97;71.08;99040.53;5037918;28;19928;-87
2021/12/03 20:31:05;;;;;;;;;;;;;;;9.10;70.27;99018.38;5028903;28;19924;-85
2021/12/03 20:38:35;;;;;;;;;;;;;;;9.22;70.32;99025.16;5029409;28;19967;-87
2021/12/03 20:41:03;;;;;;;;;;;;;;;9.28;69.64;99026.78;5029256;28;19913;-87
2021/12/03 20:43:43;;;;;;;;;;;;;;;9.23;69.61;99026.88;5029013;28;19917;-86
2021/12/03 20:48:45;;;;;;;;;;;;;;;9.28;70.36;99021.53;5029184;28;20375;-86
2021/12/03 20:51:33;;;;;;;;;;;;;;;9.28;69.81;99018.88;5028833;28;19928;-88
2021/12/03 21:09:55;;;;;;;;;;;;;;;9.11;70.23;99017.47;5028543;28;19920;-86
2021/12/03 21:12:28;;;;;;;;;;;;;;;8.98;71.55;99015.13;5028615;28;19921;-85
2021/12/03 21:15:14;;;;;;;;;;;;;;;9.06;71.33;99027.22;5027886;28;20314;-86
2021/12/03 21:17:49;;;;;;;;;;;;;;;9.12;71.59;99029.72;5028345;28;20023;-87
2021/12/03 21:20:34;;;;;;;;;;;;;;;9.25;70.86;99024.22;5036295;28;20417;-87
2021/12/03 21:23:05;;;;;;;;;;;;;;;9.34;70.53;99025.81;5041742;28;19939;-87
2021/12/03 21:25:35;;;;;;;;;;;;;;;9.20;71.49;99028.72;5048445;28;19917;-87
2021/12/03 21:28:16;;;;;;;;;;;;;;;8.70;72.25;99031.41;5047958;28;19956;-86
2021/12/03 21:37:57;;;;;;;;;;;;;;;8.77;73.34;99041.78;5048323;28;19924;-87
2021/12/03 21:39:05;;;;;;;;;;;;;;;8.33;75.10;99055.66;5048404;28;19923;-87
2021/12/03 21:41:31;;;;;;;;;;;;;;;8.78;73.57;99048.75;5048117;28;19920;-87